3IL8 weather

Kuntz Restricted Landing Area
Gridley, Illinois, United States

Public forecast

Using degrees Fahrenheit for public forecast. Weather courtesy of forecast.io.

METAR (pilot weather report)

Closest report is Central Illinois Regional Airport at Bloomington-Normal, 13.3 nm (24.7 km) S. Retrieved 2019/08/25 05:56 UTC (37 minutes ago):

KBMI 250556Z AUTO 08007KT 10SM CLR 13/11 A3015 RMK AO2 SLP203 T01330111 10206 20133 402440111 58012

TAF (pilot weather forecast)

Closest forecast is Central Illinois Regional Airport at Bloomington-Normal, 13.3 nm (24.7 km) S. Retrieved 2019/08/25 06:22 UTC (11 minutes ago):

TAF KBMI 250520Z 2506/2606 07008KT P6SM SCT250 FM251000 09008KT P6SM SCT090 BKN250 FM251400 11010KT P6SM SCT050 BKN090 FM260100 09007KT P6SM SCT090 BKN150